createdAt,value
2023-02-19T00:00:00.337Z,9.8
2023-02-19T00:00:59.824Z,9.8
2023-02-19T00:02:00.406Z,9.9
2023-02-19T00:02:59.998Z,9.8
2023-02-19T00:04:00.593Z,9.9
2023-02-19T00:05:00.251Z,10
2023-02-19T00:05:59.810Z,9.9
2023-02-19T00:07:00.412Z,9.9
2023-02-19T00:08:00.019Z,10
2023-02-19T00:09:00.598Z,10
2023-02-19T00:10:00.185Z,10
2023-02-19T00:10:59.773Z,10
2023-02-19T00:12:00.366Z,10
2023-02-19T00:12:59.955Z,10
2023-02-19T00:14:00.526Z,10
2023-02-19T00:15:00.138Z,10.1
2023-02-19T00:15:59.719Z,10.1
2023-02-19T00:17:00.288Z,10.1
2023-02-19T00:17:59.874Z,10.1
2023-02-19T00:19:00.450Z,10.1
2023-02-19T00:20:00.097Z,10.1
2023-02-19T00:20:59.630Z,10.2
2023-02-19T00:22:00.234Z,10.1
2023-02-19T00:22:59.822Z,10.2
2023-02-19T00:24:00.427Z,10.2
2023-02-19T00:25:00.024Z,10.1
2023-02-19T00:26:08.903Z,10.1
2023-02-19T00:27:00.154Z,10.1
2023-02-19T00:27:59.766Z,10
2023-02-19T00:29:00.316Z,10
2023-02-19T00:29:59.975Z,10
2023-02-19T00:31:00.509Z,10.1
2023-02-19T00:32:00.233Z,10.1
2023-02-19T00:32:59.676Z,10.1
2023-02-19T00:34:00.264Z,10.1
2023-02-19T00:34:59.875Z,10.1
2023-02-19T00:36:00.454Z,10.1
2023-02-19T00:37:00.042Z,10.1
2023-02-19T00:37:59.633Z,10.1
2023-02-19T00:39:00.204Z,10.1
2023-02-19T00:39:59.882Z,10.1
2023-02-19T00:41:00.385Z,10.1
2023-02-19T00:41:59.993Z,10.1
2023-02-19T00:43:00.543Z,10.1
2023-02-19T00:44:00.137Z,10
2023-02-19T00:44:59.718Z,10
2023-02-19T00:46:00.339Z,10.1
2023-02-19T00:46:59.985Z,10
2023-02-19T00:48:00.556Z,10.1
2023-02-19T00:49:00.155Z,10
2023-02-19T00:49:59.737Z,10
2023-02-19T00:51:00.318Z,10
2023-02-19T00:51:59.961Z,10.1
2023-02-19T00:53:00.485Z,10.1
2023-02-19T00:54:00.123Z,10.1
2023-02-19T00:54:59.656Z,10.1
2023-02-19T00:56:00.231Z,10
2023-02-19T00:56:59.817Z,10
2023-02-19T00:58:00.408Z,10
2023-02-19T00:59:00.029Z,10
2023-02-19T01:00:00.580Z,10
2023-02-19T01:01:00.188Z,9.9
2023-02-19T01:01:59.842Z,10
2023-02-19T01:03:00.348Z,9.9
2023-02-19T01:03:59.944Z,9.9
2023-02-19T01:05:00.607Z,9.9
2023-02-19T01:06:00.187Z,9.9
2023-02-19T01:06:59.766Z,9.8
2023-02-19T01:08:00.377Z,9.8
2023-02-19T01:08:59.970Z,9.8
2023-02-19T01:10:00.574Z,9.8
2023-02-19T01:11:00.170Z,9.8
2023-02-19T01:11:59.764Z,9.8
2023-02-19T01:13:00.375Z,9.8
2023-02-19T01:13:59.971Z,9.9
2023-02-19T01:15:00.541Z,9.9
2023-02-19T01:16:00.260Z,9.9
2023-02-19T01:16:59.778Z,9.9
2023-02-19T01:18:00.381Z,10
2023-02-19T01:18:59.994Z,10
2023-02-19T01:20:00.577Z,10
2023-02-19T01:21:00.174Z,9.9
2023-02-19T01:21:59.764Z,10
2023-02-19T01:23:00.335Z,10
2023-02-19T01:23:59.987Z,10
2023-02-19T01:25:00.517Z,10.1
2023-02-19T01:26:00.145Z,10
2023-02-19T01:26:59.682Z,10
2023-02-19T01:28:00.276Z,10
2023-02-19T01:28:59.883Z,10
2023-02-19T01:30:00.495Z,10
2023-02-19T01:31:00.143Z,10
2023-02-19T01:31:59.768Z,9.9
2023-02-19T01:33:00.257Z,10
2023-02-19T01:33:59.886Z,9.9
2023-02-19T01:35:00.431Z,10
2023-02-19T01:36:00.029Z,9.9
2023-02-19T01:37:00.599Z,10
2023-02-19T01:38:00.187Z,10
2023-02-19T01:38:59.823Z,9.9
2023-02-19T01:40:00.377Z,9.8
2023-02-19T01:41:00.045Z,9.8
2023-02-19T01:42:00.553Z,9.8
2023-02-19T01:43:00.140Z,9.8
2023-02-19T01:43:59.752Z,9.7
2023-02-19T01:45:00.297Z,9.7
2023-02-19T01:45:59.889Z,9.7
2023-02-19T01:47:00.474Z,9.6
2023-02-19T01:48:00.136Z,9.7
2023-02-19T01:48:59.680Z,9.7
2023-02-19T01:50:00.244Z,9.7
2023-02-19T01:50:59.837Z,9.7
2023-02-19T01:52:00.428Z,9.7
2023-02-19T01:53:00.031Z,9.7
2023-02-19T01:54:00.643Z,9.7
2023-02-19T01:55:00.244Z,9.7
2023-02-19T01:55:59.868Z,9.7
2023-02-19T01:57:00.436Z,9.7
2023-02-19T01:58:00.033Z,9.7
2023-02-19T01:59:00.626Z,9.7
2023-02-19T02:00:00.268Z,9.7
2023-02-19T02:00:59.931Z,9.7
2023-02-19T02:02:00.446Z,9.8
2023-02-19T02:03:00.044Z,9.8
2023-02-19T02:03:59.631Z,9.7
2023-02-19T02:05:00.234Z,9.8
2023-02-19T02:05:59.822Z,9.8
2023-02-19T02:07:00.423Z,9.8
2023-02-19T02:08:00.009Z,9.7
2023-02-19T02:09:00.603Z,9.7
2023-02-19T02:10:00.221Z,9.6
2023-02-19T02:10:59.810Z,9.6
2023-02-19T02:12:00.417Z,9.5
2023-02-19T02:13:00.010Z,9.6
2023-02-19T02:14:00.602Z,9.6
2023-02-19T02:15:00.213Z,9.5
2023-02-19T02:15:59.812Z,9.5
2023-02-19T02:17:00.407Z,9.5
2023-02-19T02:17:59.993Z,9.5
2023-02-19T02:19:00.580Z,9.5
2023-02-19T02:20:00.166Z,9.6
2023-02-19T02:20:59.755Z,9.6
2023-02-19T02:22:00.355Z,9.6
2023-02-19T02:22:59.945Z,9.6
2023-02-19T02:24:00.509Z,9.6
2023-02-19T02:25:00.109Z,9.6
2023-02-19T02:25:59.687Z,9.6
2023-02-19T02:27:00.276Z,9.6
2023-02-19T02:27:59.915Z,9.6
2023-02-19T02:29:00.446Z,9.6
2023-02-19T02:30:00.111Z,9.5
2023-02-19T02:31:00.626Z,9.6
2023-02-19T02:32:00.359Z,9.6
2023-02-19T02:32:59.854Z,9.6
2023-02-19T02:34:00.406Z,9.5
2023-02-19T02:35:00.009Z,9.6
2023-02-19T02:36:00.564Z,9.7
2023-02-19T02:37:00.171Z,9.6
2023-02-19T02:37:59.787Z,9.7
2023-02-19T02:39:00.339Z,9.8
2023-02-19T02:39:59.928Z,9.7
2023-02-19T02:41:00.596Z,9.7
2023-02-19T02:42:00.178Z,9.7
2023-02-19T02:42:59.771Z,9.7
2023-02-19T02:44:00.369Z,9.7
2023-02-19T02:44:59.959Z,9.5
2023-02-19T02:46:00.578Z,9.5
2023-02-19T02:47:00.185Z,9.4
2023-02-19T02:47:59.769Z,9.5
2023-02-19T02:49:00.387Z,9.5
2023-02-19T02:49:59.975Z,9.5
2023-02-19T02:51:00.560Z,9.5
2023-02-19T02:52:00.148Z,9.5
2023-02-19T02:52:59.744Z,9.5
2023-02-19T02:54:00.351Z,9.6
2023-02-19T02:55:02.383Z,9.6
2023-02-19T02:56:00.510Z,9.5
2023-02-19T02:57:00.142Z,9.6
2023-02-19T02:57:59.712Z,9.5
2023-02-19T02:59:00.306Z,9.5
2023-02-19T02:59:59.928Z,9.5
2023-02-19T03:01:00.529Z,9.5
2023-02-19T03:02:00.112Z,9.6
2023-02-19T03:02:59.966Z,9.5
2023-02-19T03:04:00.272Z,9.6
2023-02-19T03:04:59.880Z,9.5
2023-02-19T03:06:00.444Z,9.5
2023-02-19T03:07:00.033Z,9.6
2023-02-19T03:08:00.610Z,9.6
2023-02-19T03:09:00.196Z,9.5
2023-02-19T03:09:59.809Z,9.6
2023-02-19T03:11:00.357Z,9.6
2023-02-19T03:11:59.959Z,9.6
2023-02-19T03:13:00.517Z,9.7
2023-02-19T03:14:00.112Z,9.7
2023-02-19T03:14:59.714Z,9.6
2023-02-19T03:16:00.264Z,9.7
2023-02-19T03:16:59.854Z,9.6
2023-02-19T03:18:00.432Z,9.7
2023-02-19T03:19:00.036Z,9.7
2023-02-19T03:20:00.631Z,9.7
2023-02-19T03:21:00.218Z,9.7
2023-02-19T03:21:59.807Z,9.7
2023-02-19T03:23:00.394Z,9.7
2023-02-19T03:23:59.985Z,9.8
2023-02-19T03:25:00.606Z,9.7
2023-02-19T03:26:00.219Z,9.8
2023-02-19T03:26:59.789Z,9.8
2023-02-19T03:28:00.363Z,9.8
2023-02-19T03:28:59.951Z,9.7
2023-02-19T03:30:00.638Z,9.8
2023-02-19T03:31:00.208Z,9.8
2023-02-19T03:31:59.836Z,9.8
2023-02-19T03:33:00.317Z,9.8
2023-02-19T03:33:59.913Z,9.8
2023-02-19T03:35:00.481Z,9.8
2023-02-19T03:36:00.110Z,9.8
2023-02-19T03:36:59.655Z,9.7
2023-02-19T03:38:00.226Z,9.5
2023-02-19T03:38:59.834Z,9.5
2023-02-19T03:40:00.419Z,9.4
2023-02-19T03:41:00.012Z,9.4
2023-02-19T03:41:59.699Z,9.4
2023-02-19T03:43:00.186Z,9.3
2023-02-19T03:43:59.775Z,9.3
2023-02-19T03:45:00.346Z,9.3
2023-02-19T03:45:59.990Z,9.3
2023-02-19T03:47:00.547Z,9.3
2023-02-19T03:48:00.143Z,9.3
2023-02-19T03:48:59.725Z,9.3
2023-02-19T03:50:00.305Z,9.3
2023-02-19T03:50:59.918Z,9.3
2023-02-19T03:52:00.498Z,9.3
2023-02-19T03:53:00.099Z,9.3
2023-02-19T03:53:59.661Z,9.4
2023-02-19T03:55:00.248Z,9.4
2023-02-19T03:55:59.837Z,9.4
2023-02-19T03:57:00.438Z,9.4
2023-02-19T03:58:00.049Z,9.4
2023-02-19T03:59:00.620Z,9.5
2023-02-19T04:00:00.214Z,9.5
2023-02-19T04:00:59.804Z,9.5
2023-02-19T04:02:00.432Z,9.5
2023-02-19T04:03:00.053Z,9.5
2023-02-19T04:04:00.615Z,9.5
2023-02-19T04:05:00.310Z,9.5
2023-02-19T04:05:59.836Z,9.5
2023-02-19T04:07:00.411Z,9.6
2023-02-19T04:08:00.029Z,9.5
2023-02-19T04:09:00.587Z,9.5
2023-02-19T04:10:00.179Z,9.5
2023-02-19T04:10:59.768Z,9.5
2023-02-19T04:12:00.338Z,9.5
2023-02-19T04:12:59.945Z,9.5
2023-02-19T04:14:00.509Z,9.5
2023-02-19T04:15:00.134Z,9.5
2023-02-19T04:15:59.678Z,9.4
2023-02-19T04:17:00.264Z,9.5
2023-02-19T04:17:59.875Z,9.4
2023-02-19T04:19:00.423Z,9.4
2023-02-19T04:20:00.014Z,9.4
2023-02-19T04:21:00.598Z,9.4
2023-02-19T04:22:00.192Z,9.4
2023-02-19T04:22:59.799Z,9.4
2023-02-19T04:24:00.362Z,9.5
2023-02-19T04:24:59.949Z,9.4
2023-02-19T04:26:00.525Z,9.4
2023-02-19T04:27:00.152Z,9.4
2023-02-19T04:27:59.702Z,9.4
2023-02-19T04:29:00.273Z,9.4
2023-02-19T04:29:59.888Z,9.4
2023-02-19T04:31:00.530Z,9.4
2023-02-19T04:32:00.174Z,9.4
2023-02-19T04:32:59.678Z,9.4
2023-02-19T04:34:00.260Z,9.5
2023-02-19T04:34:59.851Z,9.4
2023-02-19T04:36:00.418Z,9.5
2023-02-19T04:37:00.009Z,9.4
2023-02-19T04:38:00.573Z,9.4
2023-02-19T04:39:00.189Z,9.4
2023-02-19T04:39:59.796Z,9.4
2023-02-19T04:41:00.370Z,9.5
2023-02-19T04:42:00.060Z,9.5
2023-02-19T04:43:00.551Z,9.5
2023-02-19T04:44:00.139Z,9.5
2023-02-19T04:44:59.744Z,9.5
2023-02-19T04:46:00.330Z,9.5
2023-02-19T04:46:59.928Z,9.4
2023-02-19T04:48:00.497Z,9.4
2023-02-19T04:49:00.099Z,9.5
2023-02-19T04:49:59.675Z,9.5
2023-02-19T04:51:00.238Z,9.5
2023-02-19T04:51:59.834Z,9.5
2023-02-19T04:53:00.457Z,9.5
2023-02-19T04:54:00.074Z,9.5
2023-02-19T04:54:59.654Z,9.5
2023-02-19T04:56:00.237Z,9.4
2023-02-19T04:56:59.831Z,9.4
2023-02-19T04:58:00.398Z,9.5
2023-02-19T04:58:59.986Z,9.5
2023-02-19T05:00:00.639Z,9.4
2023-02-19T05:01:00.235Z,9.4
2023-02-19T05:01:59.795Z,9.4
2023-02-19T05:03:00.385Z,9.4
2023-02-19T05:03:59.988Z,9.4
2023-02-19T05:05:00.558Z,9.3
2023-02-19T05:06:00.144Z,9.3
2023-02-19T05:06:59.751Z,9.3
2023-02-19T05:08:00.305Z,9.3
2023-02-19T05:08:59.923Z,9.2
2023-02-19T05:10:00.495Z,9.3
2023-02-19T05:11:00.116Z,9.3
2023-02-19T05:11:59.689Z,9.2
2023-02-19T05:13:00.259Z,9.2
2023-02-19T05:13:59.865Z,9.2
2023-02-19T05:15:00.454Z,9.2
2023-02-19T05:16:00.098Z,9.2
2023-02-19T05:16:59.635Z,9.2
2023-02-19T05:18:00.229Z,9.1
2023-02-19T05:18:59.815Z,9.1
2023-02-19T05:20:00.397Z,9.1
2023-02-19T05:20:59.984Z,9.2
2023-02-19T05:22:00.573Z,9.1
2023-02-19T05:23:00.183Z,9.2
2023-02-19T05:23:59.773Z,9.2
2023-02-19T05:25:00.375Z,9.2
2023-02-19T05:26:00.014Z,9.3
2023-02-19T05:27:00.606Z,9.3
2023-02-19T05:28:00.192Z,9.3
2023-02-19T05:28:59.781Z,9.3
2023-02-19T05:30:00.425Z,9.3
2023-02-19T05:30:59.999Z,9.3
2023-02-19T05:32:00.602Z,9.3
2023-02-19T05:33:00.242Z,9.3
2023-02-19T05:33:59.804Z,9.3
2023-02-19T05:35:00.404Z,9.3
2023-02-19T05:35:59.995Z,9.3
2023-02-19T05:37:00.567Z,9.3
2023-02-19T05:38:00.151Z,9.3
2023-02-19T05:38:59.745Z,9.3
2023-02-19T05:40:00.334Z,9.3
2023-02-19T05:40:59.921Z,9.3
2023-02-19T05:42:00.490Z,9.3
2023-02-19T05:43:00.177Z,9.3
2023-02-19T05:43:59.656Z,9.3
2023-02-19T05:45:00.255Z,9.3
2023-02-19T05:45:59.903Z,9.3
2023-02-19T05:47:00.470Z,9.3
2023-02-19T05:48:00.085Z,9.3
2023-02-19T05:48:59.653Z,9.3
2023-02-19T05:50:00.204Z,9.2
2023-02-19T05:50:59.810Z,9.2
2023-02-19T05:52:00.380Z,9.2
2023-02-19T05:52:59.986Z,9.2
2023-02-19T05:54:00.725Z,9.2
2023-02-19T05:55:00.485Z,9.3
2023-02-19T05:55:59.766Z,9.3
2023-02-19T05:57:00.366Z,9.3
2023-02-19T05:57:59.953Z,9.2
2023-02-19T05:59:00.551Z,9.3
2023-02-19T06:00:00.139Z,9.2
2023-02-19T06:00:59.718Z,9.2
2023-02-19T06:02:00.314Z,9.2
2023-02-19T06:02:59.985Z,9.2
2023-02-19T06:04:00.509Z,9.2
2023-02-19T06:05:00.110Z,9.2
2023-02-19T06:05:59.695Z,9.2
2023-02-19T06:07:00.280Z,9.2
2023-02-19T06:07:59.870Z,9.2
2023-02-19T06:09:00.465Z,9.2
2023-02-19T06:10:00.063Z,9.3
2023-02-19T06:10:59.639Z,9.2
2023-02-19T06:12:00.217Z,9.2
2023-02-19T06:12:59.809Z,9.2
2023-02-19T06:14:00.414Z,9.2
2023-02-19T06:15:00.021Z,9.2
2023-02-19T06:16:00.621Z,9.2
2023-02-19T06:17:00.328Z,9.2
2023-02-19T06:17:59.793Z,9.3
2023-02-19T06:19:00.366Z,9.3
2023-02-19T06:19:59.979Z,9.2
2023-02-19T06:21:00.543Z,9.1
2023-02-19T06:22:00.126Z,9.1
2023-02-19T06:22:59.711Z,9.1
2023-02-19T06:24:00.304Z,9
2023-02-19T06:24:59.940Z,9
2023-02-19T06:26:00.500Z,8.9
2023-02-19T06:27:00.124Z,8.9
2023-02-19T06:27:59.673Z,9
2023-02-19T06:29:00.256Z,9
2023-02-19T06:29:59.864Z,9
2023-02-19T06:31:00.416Z,9
2023-02-19T06:32:00.139Z,9
2023-02-19T06:33:00.580Z,9
2023-02-19T06:34:00.186Z,9
2023-02-19T06:34:59.782Z,9
2023-02-19T06:36:00.358Z,9
2023-02-19T06:36:59.966Z,9
2023-02-19T06:38:00.548Z,9
2023-02-19T06:39:00.140Z,9
2023-02-19T06:39:59.709Z,9
2023-02-19T06:41:00.299Z,9
2023-02-19T06:41:59.888Z,9.1
2023-02-19T06:43:00.507Z,9.1
2023-02-19T06:44:00.195Z,9.1
2023-02-19T06:44:59.698Z,9.1
2023-02-19T06:46:00.252Z,9.1
2023-02-19T06:46:59.844Z,9.1
2023-02-19T06:48:00.421Z,9.1
2023-02-19T06:49:00.026Z,9.1
2023-02-19T06:50:00.634Z,9.1
2023-02-19T06:51:00.224Z,9.1
2023-02-19T06:51:59.811Z,9.1
2023-02-19T06:53:00.397Z,9.1
2023-02-19T06:54:00.017Z,9.1
2023-02-19T06:55:00.576Z,9.1
2023-02-19T06:56:00.170Z,9.1
2023-02-19T06:56:59.762Z,9
2023-02-19T06:58:00.348Z,9
2023-02-19T06:58:59.956Z,9.1
2023-02-19T07:00:00.525Z,9.1
2023-02-19T07:01:00.148Z,9
2023-02-19T07:01:59.685Z,9
2023-02-19T07:03:00.264Z,9
2023-02-19T07:03:59.934Z,8.9
2023-02-19T07:05:00.449Z,9
2023-02-19T07:06:00.038Z,9
2023-02-19T07:07:00.610Z,9
2023-02-19T07:08:00.209Z,9.1
2023-02-19T07:08:59.796Z,9.1
2023-02-19T07:10:00.392Z,9.2
2023-02-19T07:10:59.985Z,9.1
2023-02-19T07:12:00.584Z,9.1
2023-02-19T07:13:00.175Z,9.1
2023-02-19T07:13:59.762Z,9.1
2023-02-19T07:15:00.367Z,9.1
2023-02-19T07:16:00.006Z,9.1
2023-02-19T07:17:00.551Z,9.1
2023-02-19T07:18:00.166Z,9
2023-02-19T07:18:59.720Z,9
2023-02-19T07:20:00.316Z,8.9
2023-02-19T07:20:59.929Z,8.9
2023-02-19T07:22:00.489Z,8.9
2023-02-19T07:23:00.102Z,8.9
2023-02-19T07:23:59.656Z,9
2023-02-19T07:25:00.290Z,8.9
2023-02-19T07:25:59.903Z,8.9
2023-02-19T07:27:00.454Z,8.9
2023-02-19T07:28:00.055Z,9
2023-02-19T07:29:00.615Z,8.9
2023-02-19T07:30:00.287Z,9
2023-02-19T07:30:59.878Z,9
2023-02-19T07:32:00.464Z,8.9
2023-02-19T07:33:00.102Z,8.9
2023-02-19T07:33:59.645Z,8.9
2023-02-19T07:35:00.215Z,8.9
2023-02-19T07:35:59.835Z,8.9
2023-02-19T07:37:00.399Z,8.9
2023-02-19T07:38:00.005Z,8.9
2023-02-19T07:39:00.573Z,8.9
2023-02-19T07:40:00.161Z,8.9
2023-02-19T07:40:59.773Z,8.9
2023-02-19T07:42:00.335Z,8.9
2023-02-19T07:42:59.932Z,8.9
2023-02-19T07:44:00.596Z,8.9
2023-02-19T07:45:00.685Z,8.9
2023-02-19T07:46:00.385Z,8.9
2023-02-19T07:47:00.013Z,9
2023-02-19T07:48:00.614Z,9
2023-02-19T07:49:00.218Z,8.9
2023-02-19T07:49:59.813Z,8.9
2023-02-19T07:51:00.392Z,8.8
2023-02-19T07:52:00.000Z,8.8
2023-02-19T07:53:00.586Z,8.8
2023-02-19T07:54:00.177Z,8.7
2023-02-19T07:54:59.773Z,8.8
2023-02-19T07:56:00.343Z,8.8
2023-02-19T07:56:59.961Z,8.8
2023-02-19T07:58:00.500Z,8.8
2023-02-19T07:59:00.112Z,8.8
2023-02-19T07:59:59.658Z,8.8
2023-02-19T08:01:00.274Z,8.8
2023-02-19T08:01:59.870Z,8.8
2023-02-19T08:03:00.600Z,8.8
2023-02-19T08:04:00.135Z,8.9
2023-02-19T08:04:59.693Z,8.9
2023-02-19T08:06:00.260Z,8.8
2023-02-19T08:06:59.871Z,8.8
2023-02-19T08:08:00.435Z,8.8
2023-02-19T08:09:00.032Z,8.8
2023-02-19T08:10:00.619Z,8.8
2023-02-19T08:11:00.238Z,8.8
2023-02-19T08:11:59.827Z,8.8
2023-02-19T08:13:00.402Z,8.9
2023-02-19T08:13:59.996Z,8.9
2023-02-19T08:15:00.574Z,8.9
2023-02-19T08:16:14.701Z,8.9
2023-02-19T08:16:59.771Z,9
2023-02-19T08:18:00.366Z,9
2023-02-19T08:18:59.963Z,9
2023-02-19T08:20:00.556Z,9
2023-02-19T08:21:00.168Z,9.1
2023-02-19T08:21:59.718Z,9.1
2023-02-19T08:23:00.309Z,9.1
2023-02-19T08:23:59.895Z,9.1
2023-02-19T08:25:00.472Z,9.2
2023-02-19T08:26:00.058Z,9.3
2023-02-19T08:26:59.661Z,9.3
2023-02-19T08:28:00.285Z,9.3
2023-02-19T08:28:59.888Z,9.4
2023-02-19T08:30:00.510Z,9.4
2023-02-19T08:31:00.159Z,9.5
2023-02-19T08:31:59.999Z,9.5
2023-02-19T08:33:02.148Z,9.5
2023-02-19T08:34:00.197Z,9.5
2023-02-19T08:35:00.510Z,9.4
2023-02-19T08:36:00.368Z,9.5
2023-02-19T08:36:59.690Z,9.5
2023-02-19T08:38:00.517Z,9.4
2023-02-19T08:38:59.928Z,9.4
2023-02-19T08:40:00.516Z,9.5
2023-02-19T08:41:00.128Z,9.5
2023-02-19T08:41:59.680Z,9.5
2023-02-19T08:43:00.268Z,9.5
2023-02-19T08:43:59.875Z,9.6
2023-02-19T08:45:00.553Z,9.6
2023-02-19T08:46:00.142Z,9.6
2023-02-19T08:46:59.689Z,9.6
2023-02-19T08:48:00.269Z,9.6
2023-02-19T08:48:59.895Z,9.6
2023-02-19T08:50:00.441Z,9.7
2023-02-19T08:51:00.045Z,9.6
2023-02-19T08:52:00.619Z,9.6
2023-02-19T08:53:00.215Z,9.6
2023-02-19T08:53:59.822Z,9.7
2023-02-19T08:55:00.378Z,9.6
2023-02-19T08:56:00.045Z,9.5
2023-02-19T08:57:00.600Z,9.5
2023-02-19T08:58:00.214Z,9.5
2023-02-19T08:58:59.805Z,9.6
2023-02-19T09:00:00.370Z,9.6
2023-02-19T09:00:59.970Z,9.7
2023-02-19T09:02:00.542Z,9.7
2023-02-19T09:03:00.194Z,9.7
2023-02-19T09:03:59.824Z,9.6
2023-02-19T09:05:00.352Z,9.6
2023-02-19T09:05:59.952Z,9.6
2023-02-19T09:07:00.547Z,9.5
2023-02-19T09:08:00.136Z,9.4
2023-02-19T09:08:59.719Z,9.3
2023-02-19T09:10:00.299Z,9.4
2023-02-19T09:10:59.887Z,9.4
2023-02-19T09:12:00.498Z,9.4
2023-02-19T09:13:00.095Z,9.4
2023-02-19T09:13:59.677Z,9.4
2023-02-19T09:15:00.263Z,9.4
2023-02-19T09:15:59.888Z,9.3
2023-02-19T09:17:00.461Z,9.3
2023-02-19T09:18:00.053Z,9.3
2023-02-19T09:18:59.642Z,9.2
2023-02-19T09:20:00.225Z,9.3
2023-02-19T09:20:59.869Z,9.3
2023-02-19T09:22:00.449Z,9.3
2023-02-19T09:23:00.036Z,9.3
2023-02-19T09:24:00.617Z,9.3
2023-02-19T09:25:00.203Z,9.3
2023-02-19T09:25:59.791Z,9.3
2023-02-19T09:27:00.386Z,9.4
2023-02-19T09:27:59.975Z,9.3
2023-02-19T09:29:00.562Z,9.4
2023-02-19T09:30:00.230Z,9.5
2023-02-19T09:30:59.839Z,9.5
2023-02-19T09:32:00.410Z,9.6
2023-02-19T09:33:00.039Z,9.5
2023-02-19T09:33:59.626Z,9.5
2023-02-19T09:35:00.217Z,9.5
2023-02-19T09:35:59.807Z,9.5
2023-02-19T09:37:00.391Z,9.4
2023-02-19T09:37:59.983Z,9.5
2023-02-19T09:39:00.585Z,9.5
2023-02-19T09:40:00.195Z,9.5
2023-02-19T09:40:59.807Z,9.4
2023-02-19T09:42:00.378Z,9.4
2023-02-19T09:43:01.620Z,9.4
2023-02-19T09:44:00.442Z,9.4
2023-02-19T09:45:00.032Z,9.4
2023-02-19T09:45:59.735Z,9.4
2023-02-19T09:47:00.208Z,9.4
2023-02-19T09:47:59.800Z,9.3
2023-02-19T09:49:00.407Z,9.3
2023-02-19T09:50:00.015Z,9.3
2023-02-19T09:51:00.579Z,9.4
2023-02-19T09:52:00.170Z,9.5
2023-02-19T09:52:59.759Z,9.6
2023-02-19T09:54:00.369Z,9.7
2023-02-19T09:54:59.957Z,9.8
2023-02-19T09:56:00.566Z,9.7
2023-02-19T09:57:00.153Z,9.8
2023-02-19T09:57:59.788Z,9.7
2023-02-19T09:59:00.396Z,9.7
2023-02-19T09:59:59.991Z,9.6
2023-02-19T10:01:00.957Z,9.6
2023-02-19T10:02:00.551Z,9.6
2023-02-19T10:02:59.815Z,9.5
2023-02-19T10:04:00.393Z,9.5
2023-02-19T10:05:00.045Z,9.5
2023-02-19T10:06:00.589Z,9.5
2023-02-19T10:07:00.200Z,9.5
2023-02-19T10:07:59.789Z,9.5
2023-02-19T10:09:00.374Z,9.5
2023-02-19T10:09:59.969Z,9.5
2023-02-19T10:11:00.541Z,9.5
2023-02-19T10:12:00.159Z,9.6
2023-02-19T10:12:59.716Z,9.5
2023-02-19T10:14:00.303Z,9.6
2023-02-19T10:14:59.889Z,9.5
2023-02-19T10:16:00.514Z,9.6
2023-02-19T10:17:00.152Z,9.6
2023-02-19T10:17:59.706Z,9.6
2023-02-19T10:19:00.299Z,9.7
2023-02-19T10:19:59.890Z,9.8
2023-02-19T10:21:00.481Z,9.8
2023-02-19T10:22:00.126Z,9.8
2023-02-19T10:22:59.668Z,9.8
2023-02-19T10:24:00.279Z,9.8
2023-02-19T10:24:59.868Z,9.7
2023-02-19T10:26:00.451Z,9.7
2023-02-19T10:27:00.086Z,9.7
2023-02-19T10:27:59.629Z,9.7
2023-02-19T10:29:00.238Z,9.7
2023-02-19T10:29:59.924Z,9.7
2023-02-19T10:31:00.425Z,9.8
2023-02-19T10:32:00.168Z,9.8
2023-02-19T10:33:00.623Z,9.8
2023-02-19T10:34:00.238Z,9.8
2023-02-19T10:34:59.827Z,9.8
2023-02-19T10:36:00.408Z,9.8
2023-02-19T10:36:59.991Z,9.9
2023-02-19T10:38:00.563Z,10
2023-02-19T10:39:00.169Z,10.1
2023-02-19T10:39:59.757Z,10
2023-02-19T10:41:00.351Z,10
2023-02-19T10:41:59.942Z,9.9
2023-02-19T10:43:00.529Z,9.8
2023-02-19T10:44:00.139Z,9.8
2023-02-19T10:44:59.730Z,9.8
2023-02-19T10:46:00.339Z,9.6
2023-02-19T10:46:59.932Z,9.6
2023-02-19T10:48:00.517Z,9.6
2023-02-19T10:49:00.107Z,9.6
2023-02-19T10:49:59.703Z,9.7
2023-02-19T10:51:00.269Z,9.7
2023-02-19T10:51:59.860Z,9.8
2023-02-19T10:53:00.455Z,9.8
2023-02-19T10:54:00.043Z,9.8
2023-02-19T10:54:59.664Z,9.9
2023-02-19T10:56:00.200Z,9.9
2023-02-19T10:56:59.802Z,10
2023-02-19T10:58:00.364Z,10
2023-02-19T10:58:59.965Z,10
2023-02-19T11:00:00.564Z,10.1
2023-02-19T11:01:00.150Z,10.2
2023-02-19T11:01:59.813Z,10.3
2023-02-19T11:03:00.325Z,10.4
2023-02-19T11:03:59.914Z,10.7
2023-02-19T11:05:00.516Z,10.8
2023-02-19T11:06:00.137Z,10.9
2023-02-19T11:06:59.686Z,10.9
2023-02-19T11:08:00.274Z,10.9
2023-02-19T11:08:59.874Z,10.7
2023-02-19T11:10:00.455Z,10.6
2023-02-19T11:11:00.075Z,10.5
2023-02-19T11:11:59.676Z,10.4
2023-02-19T11:13:00.224Z,10.3
2023-02-19T11:13:59.819Z,10.3
2023-02-19T11:15:00.396Z,10.3
2023-02-19T11:16:00.069Z,10.5
2023-02-19T11:17:00.586Z,10.5
2023-02-19T11:18:00.170Z,10.6
2023-02-19T11:18:59.760Z,10.6
2023-02-19T11:20:00.346Z,10.8
2023-02-19T11:20:59.938Z,10.7
2023-02-19T11:22:00.548Z,10.7
2023-02-19T11:23:00.141Z,10.7
2023-02-19T11:24:00.774Z,10.8
2023-02-19T11:25:00.413Z,10.8
2023-02-19T11:25:59.953Z,10.8
2023-02-19T11:27:00.524Z,10.8
2023-02-19T11:28:00.137Z,10.8
2023-02-19T11:28:59.691Z,10.7
2023-02-19T11:30:00.406Z,10.7
2023-02-19T11:30:59.961Z,10.6
2023-02-19T11:32:00.631Z,10.6
2023-02-19T11:33:00.204Z,10.5
2023-02-19T11:33:59.797Z,10.5
2023-02-19T11:35:00.365Z,10.5
2023-02-19T11:35:59.955Z,10.4
2023-02-19T11:37:00.550Z,10.4
2023-02-19T11:38:00.178Z,10.5
2023-02-19T11:38:59.797Z,10.4
2023-02-19T11:40:00.340Z,10.5
2023-02-19T11:40:59.933Z,10.5
2023-02-19T11:42:00.509Z,10.5
2023-02-19T11:43:00.097Z,10.4
2023-02-19T11:43:59.706Z,10.5
2023-02-19T11:45:00.275Z,10.4
2023-02-19T11:45:59.864Z,10.4
2023-02-19T11:47:00.489Z,10.3
2023-02-19T11:48:00.104Z,10.2
2023-02-19T11:48:59.686Z,10.1
2023-02-19T11:50:00.252Z,10
2023-02-19T11:50:59.848Z,9.9
2023-02-19T11:52:00.434Z,9.7
2023-02-19T11:53:00.034Z,9.7
2023-02-19T11:54:00.631Z,9.7
2023-02-19T11:55:00.221Z,9.4
2023-02-19T11:55:59.807Z,9.3
2023-02-19T11:57:00.426Z,9.1
2023-02-19T11:58:00.014Z,8.9
2023-02-19T11:59:01.201Z,8.7
2023-02-19T11:59:59.886Z,8.5
2023-02-19T12:01:00.479Z,8.4
2023-02-19T12:02:00.212Z,8.3
2023-02-19T12:02:59.649Z,8.1
2023-02-19T12:04:00.240Z,8.1
2023-02-19T12:04:59.840Z,8.1
2023-02-19T12:06:00.446Z,8.1
2023-02-19T12:07:00.048Z,8.1
2023-02-19T12:08:00.631Z,8
2023-02-19T12:09:00.224Z,7.9
2023-02-19T12:09:59.815Z,7.9
2023-02-19T12:11:00.425Z,7.8
2023-02-19T12:12:00.034Z,7.8
2023-02-19T12:13:00.610Z,7.9
2023-02-19T12:14:00.201Z,8
2023-02-19T12:14:59.792Z,7.9
2023-02-19T12:16:00.393Z,7.8
2023-02-19T12:16:59.992Z,7.7
2023-02-19T12:18:00.574Z,7.7
2023-02-19T12:19:00.159Z,7.6
2023-02-19T12:19:59.753Z,7.6
2023-02-19T12:21:00.363Z,7.6
2023-02-19T12:21:59.967Z,7.6
2023-02-19T12:23:00.534Z,7.8
2023-02-19T12:24:00.139Z,7.9
2023-02-19T12:24:59.711Z,8
2023-02-19T12:26:00.296Z,8.2
2023-02-19T12:26:59.908Z,8.3
2023-02-19T12:28:00.474Z,8.3
2023-02-19T12:29:00.086Z,8.4
2023-02-19T12:29:59.701Z,8.4
2023-02-19T12:31:00.258Z,8.4
2023-02-19T12:31:59.902Z,8.6
2023-02-19T12:33:00.447Z,8.7
2023-02-19T12:34:00.067Z,8.6
2023-02-19T12:35:00.627Z,8.6
2023-02-19T12:36:00.215Z,8.6
2023-02-19T12:36:59.807Z,8.3
2023-02-19T12:38:00.434Z,8.2
2023-02-19T12:39:00.031Z,8.1
2023-02-19T12:40:00.621Z,8.2
2023-02-19T12:41:00.209Z,8.1
2023-02-19T12:41:59.802Z,8.1
2023-02-19T12:43:00.397Z,8.1
2023-02-19T12:43:59.985Z,8.1
2023-02-19T12:45:00.558Z,8.1
2023-02-19T12:46:00.207Z,8.1
2023-02-19T12:46:59.845Z,8.1
2023-02-19T12:48:00.395Z,8.1
2023-02-19T12:48:59.986Z,7.9
2023-02-19T12:50:00.577Z,7.9
2023-02-19T12:51:00.186Z,7.9
2023-02-19T12:51:59.778Z,7.9
2023-02-19T12:53:00.363Z,7.9
2023-02-19T12:53:59.991Z,7.9
2023-02-19T12:55:00.545Z,7.9
2023-02-19T12:56:00.134Z,7.9
2023-02-19T12:56:59.723Z,7.9
2023-02-19T12:58:00.296Z,7.9
2023-02-19T12:58:59.909Z,7.9
2023-02-19T13:00:00.468Z,8.1
2023-02-19T13:01:00.229Z,8.1
2023-02-19T13:01:59.680Z,8.1
2023-02-19T13:03:00.226Z,8.1
2023-02-19T13:03:59.837Z,8.2
2023-02-19T13:05:01.195Z,8.3
2023-02-19T13:05:59.897Z,8.3
2023-02-19T13:07:00.501Z,8.4
2023-02-19T13:08:00.135Z,8.5
2023-02-19T13:09:07.328Z,8.4
2023-02-19T13:10:00.246Z,8.5
2023-02-19T13:10:59.850Z,8.5
2023-02-19T13:12:00.431Z,8.5
2023-02-19T13:13:00.027Z,8.6
2023-02-19T13:14:00.629Z,8.6
2023-02-19T13:15:00.251Z,8.6
2023-02-19T13:15:59.842Z,8.7
2023-02-19T13:17:00.547Z,8.8
2023-02-19T13:18:01.506Z,8.7
2023-02-19T13:19:00.192Z,8.8
2023-02-19T13:19:59.799Z,8.8
2023-02-19T13:21:00.388Z,8.7
2023-02-19T13:21:59.979Z,8.8
2023-02-19T13:23:00.569Z,8.8
2023-02-19T13:23:59.707Z,8.7
2023-02-19T13:25:00.299Z,8.6
2023-02-19T13:25:59.905Z,8.7
2023-02-19T13:27:00.478Z,8.7
2023-02-19T13:28:00.108Z,8.7
2023-02-19T13:28:59.674Z,8.7
2023-02-19T13:30:00.392Z,8.7
2023-02-19T13:30:59.995Z,8.7
2023-02-19T13:32:00.596Z,8.7
2023-02-19T13:33:00.143Z,8.7
2023-02-19T13:33:59.708Z,8.8
2023-02-19T13:35:00.284Z,8.8
2023-02-19T13:35:59.893Z,8.8
2023-02-19T13:37:00.474Z,8.8
2023-02-19T13:38:00.063Z,8.8
2023-02-19T13:38:59.642Z,8.7
2023-02-19T13:40:00.227Z,8.7
2023-02-19T13:40:59.826Z,8.5
2023-02-19T13:42:00.409Z,8.4
2023-02-19T13:42:59.997Z,8.4
2023-02-19T13:44:00.592Z,8.3
2023-02-19T13:45:00.205Z,8.3
2023-02-19T13:45:59.815Z,8.2
2023-02-19T13:47:00.378Z,8.3